sensor_id;sensor_type;location;lat;lon;timestamp;P1;durP1;ratioP1;P2;durP2;ratioP2
11228;SDS011;5671;47.936;8.716;2022-08-21T00:00:06;3.73;;;0.97;;
11228;SDS011;5671;47.936;8.716;2022-08-21T00:02:35;1.00;;;1.00;;
11228;SDS011;5671;47.936;8.716;2022-08-21T00:05:03;13.30;;;1.40;;
11228;SDS011;5671;47.936;8.716;2022-08-21T00:07:32;16.37;;;1.17;;
11228;SDS011;5671;47.936;8.716;2022-08-21T00:09:59;17.40;;;1.60;;
11228;SDS011;5671;47.936;8.716;2022-08-21T00:12:27;12.63;;;1.70;;
11228;SDS011;5671;47.936;8.716;2022-08-21T00:14:54;15.80;;;1.60;;
11228;SDS011;5671;47.936;8.716;2022-08-21T00:17:21;6.57;;;1.30;;
11228;SDS011;5671;47.936;8.716;2022-08-21T00:19:48;31.27;;;2.13;;
11228;SDS011;5671;47.936;8.716;2022-08-21T00:22:15;8.47;;;1.60;;
11228;SDS011;5671;47.936;8.716;2022-08-21T00:24:43;17.63;;;1.63;;
11228;SDS011;5671;47.936;8.716;2022-08-21T00:27:10;21.93;;;1.63;;
11228;SDS011;5671;47.936;8.716;2022-08-21T00:29:37;13.50;;;1.20;;
11228;SDS011;5671;47.936;8.716;2022-08-21T00:32:04;19.97;;;1.40;;
11228;SDS011;5671;47.936;8.716;2022-08-21T00:34:31;11.47;;;1.40;;
11228;SDS011;5671;47.936;8.716;2022-08-21T00:36:59;13.77;;;1.07;;
11228;SDS011;5671;47.936;8.716;2022-08-21T00:39:26;21.60;;;1.50;;
11228;SDS011;5671;47.936;8.716;2022-08-21T00:42:09;4.70;;;1.23;;
11228;SDS011;5671;47.936;8.716;2022-08-21T00:44:39;8.27;;;1.30;;
11228;SDS011;5671;47.936;8.716;2022-08-21T00:47:07;14.57;;;1.60;;
11228;SDS011;5671;47.936;8.716;2022-08-21T00:49:34;6.77;;;1.23;;
11228;SDS011;5671;47.936;8.716;2022-08-21T00:52:01;16.03;;;1.77;;
11228;SDS011;5671;47.936;8.716;2022-08-21T00:54:30;16.23;;;1.73;;
11228;SDS011;5671;47.936;8.716;2022-08-21T00:56:58;6.03;;;1.10;;
11228;SDS011;5671;47.936;8.716;2022-08-21T00:59:29;12.23;;;1.30;;
11228;SDS011;5671;47.936;8.716;2022-08-21T01:02:01;1.10;;;1.00;;
11228;SDS011;5671;47.936;8.716;2022-08-21T01:04:28;3.93;;;0.97;;
11228;SDS011;5671;47.936;8.716;2022-08-21T01:06:55;14.77;;;1.50;;
11228;SDS011;5671;47.936;8.716;2022-08-21T01:09:23;10.87;;;1.20;;
11228;SDS011;5671;47.936;8.716;2022-08-21T01:11:50;47.70;;;1.70;;
11228;SDS011;5671;47.936;8.716;2022-08-21T01:14:17;12.07;;;1.40;;
11228;SDS011;5671;47.936;8.716;2022-08-21T01:16:47;10.90;;;1.23;;
11228;SDS011;5671;47.936;8.716;2022-08-21T01:19:18;25.43;;;2.10;;
11228;SDS011;5671;47.936;8.716;2022-08-21T01:21:48;8.37;;;1.30;;
11228;SDS011;5671;47.936;8.716;2022-08-21T01:24:15;35.87;;;1.73;;
11228;SDS011;5671;47.936;8.716;2022-08-21T01:26:44;14.63;;;1.60;;
11228;SDS011;5671;47.936;8.716;2022-08-21T01:29:20;46.23;;;1.90;;
11228;SDS011;5671;47.936;8.716;2022-08-21T01:31:55;18.63;;;1.50;;
11228;SDS011;5671;47.936;8.716;2022-08-21T01:34:23;11.80;;;1.27;;
11228;SDS011;5671;47.936;8.716;2022-08-21T01:36:51;10.23;;;1.40;;
11228;SDS011;5671;47.936;8.716;2022-08-21T01:39:18;16.07;;;1.40;;
11228;SDS011;5671;47.936;8.716;2022-08-21T01:41:45;4.60;;;1.20;;
11228;SDS011;5671;47.936;8.716;2022-08-21T01:44:12;18.87;;;1.27;;
11228;SDS011;5671;47.936;8.716;2022-08-21T01:46:39;21.60;;;1.73;;
11228;SDS011;5671;47.936;8.716;2022-08-21T01:49:06;9.43;;;1.17;;
11228;SDS011;5671;47.936;8.716;2022-08-21T01:51:34;5.20;;;0.60;;
11228;SDS011;5671;47.936;8.716;2022-08-21T01:54:02;23.17;;;1.37;;
11228;SDS011;5671;47.936;8.716;2022-08-21T01:56:31;34.30;;;1.93;;
11228;SDS011;5671;47.936;8.716;2022-08-21T01:59:03;14.23;;;1.27;;
11228;SDS011;5671;47.936;8.716;2022-08-21T02:01:31;9.60;;;1.30;;
11228;SDS011;5671;47.936;8.716;2022-08-21T02:03:58;20.27;;;1.50;;
11228;SDS011;5671;47.936;8.716;2022-08-21T02:06:25;18.33;;;1.43;;
11228;SDS011;5671;47.936;8.716;2022-08-21T02:08:53;4.67;;;1.60;;
11228;SDS011;5671;47.936;8.716;2022-08-21T02:11:21;4.90;;;1.10;;
11228;SDS011;5671;47.936;8.716;2022-08-21T02:13:49;9.93;;;1.47;;
11228;SDS011;5671;47.936;8.716;2022-08-21T02:16:16;4.67;;;1.20;;
11228;SDS011;5671;47.936;8.716;2022-08-21T02:18:43;4.37;;;1.40;;
11228;SDS011;5671;47.936;8.716;2022-08-21T02:21:10;2.73;;;1.20;;
11228;SDS011;5671;47.936;8.716;2022-08-21T02:23:37;8.30;;;1.20;;
11228;SDS011;5671;47.936;8.716;2022-08-21T02:26:05;6.50;;;1.00;;
11228;SDS011;5671;47.936;8.716;2022-08-21T02:28:35;12.80;;;1.00;;
11228;SDS011;5671;47.936;8.716;2022-08-21T02:31:03;21.97;;;1.53;;
11228;SDS011;5671;47.936;8.716;2022-08-21T02:33:31;61.70;;;2.93;;
11228;SDS011;5671;47.936;8.716;2022-08-21T02:35:58;14.23;;;1.43;;
11228;SDS011;5671;47.936;8.716;2022-08-21T02:38:27;11.53;;;1.13;;
11228;SDS011;5671;47.936;8.716;2022-08-21T02:40:59;26.13;;;1.80;;
11228;SDS011;5671;47.936;8.716;2022-08-21T02:43:27;7.07;;;1.57;;
11228;SDS011;5671;47.936;8.716;2022-08-21T02:45:56;8.13;;;1.70;;
11228;SDS011;5671;47.936;8.716;2022-08-21T02:48:25;3.70;;;1.20;;
11228;SDS011;5671;47.936;8.716;2022-08-21T02:50:55;3.90;;;1.20;;
11228;SDS011;5671;47.936;8.716;2022-08-21T02:53:23;8.07;;;1.23;;
11228;SDS011;5671;47.936;8.716;2022-08-21T02:55:51;18.63;;;1.60;;
11228;SDS011;5671;47.936;8.716;2022-08-21T02:58:23;78.37;;;3.30;;
11228;SDS011;5671;47.936;8.716;2022-08-21T03:00:52;13.73;;;1.40;;
11228;SDS011;5671;47.936;8.716;2022-08-21T03:03:21;21.30;;;1.50;;
11228;SDS011;5671;47.936;8.716;2022-08-21T03:05:48;26.77;;;1.90;;
11228;SDS011;5671;47.936;8.716;2022-08-21T03:08:16;12.23;;;1.30;;
11228;SDS011;5671;47.936;8.716;2022-08-21T03:10:45;12.77;;;1.40;;
11228;SDS011;5671;47.936;8.716;2022-08-21T03:13:13;2.77;;;1.20;;
11228;SDS011;5671;47.936;8.716;2022-08-21T03:15:41;6.50;;;1.00;;
11228;SDS011;5671;47.936;8.716;2022-08-21T03:18:10;8.70;;;1.37;;
11228;SDS011;5671;47.936;8.716;2022-08-21T03:20:39;15.40;;;1.70;;
11228;SDS011;5671;47.936;8.716;2022-08-21T03:23:08;6.23;;;1.13;;
11228;SDS011;5671;47.936;8.716;2022-08-21T03:25:35;25.23;;;1.80;;
11228;SDS011;5671;47.936;8.716;2022-08-21T03:28:03;10.37;;;1.43;;
11228;SDS011;5671;47.936;8.716;2022-08-21T03:30:32;5.93;;;1.27;;
11228;SDS011;5671;47.936;8.716;2022-08-21T03:33:00;1.33;;;0.93;;
11228;SDS011;5671;47.936;8.716;2022-08-21T03:35:27;7.20;;;1.00;;
11228;SDS011;5671;47.936;8.716;2022-08-21T03:37:56;2.13;;;1.00;;
11228;SDS011;5671;47.936;8.716;2022-08-21T03:40:23;1.77;;;1.10;;
11228;SDS011;5671;47.936;8.716;2022-08-21T03:42:50;5.60;;;1.13;;
11228;SDS011;5671;47.936;8.716;2022-08-21T03:45:18;10.27;;;1.30;;
11228;SDS011;5671;47.936;8.716;2022-08-21T03:47:53;4.37;;;1.70;;
11228;SDS011;5671;47.936;8.716;2022-08-21T03:50:22;18.37;;;1.63;;
11228;SDS011;5671;47.936;8.716;2022-08-21T03:52:50;3.37;;;1.10;;
11228;SDS011;5671;47.936;8.716;2022-08-21T03:55:19;6.43;;;1.27;;
11228;SDS011;5671;47.936;8.716;2022-08-21T03:57:46;10.90;;;1.30;;
11228;SDS011;5671;47.936;8.716;2022-08-21T04:00:13;16.80;;;1.40;;
11228;SDS011;5671;47.936;8.716;2022-08-21T04:02:44;13.43;;;1.30;;
11228;SDS011;5671;47.936;8.716;2022-08-21T04:05:12;1.40;;;1.30;;
11228;SDS011;5671;47.936;8.716;2022-08-21T04:07:51;7.73;;;1.20;;
11228;SDS011;5671;47.936;8.716;2022-08-21T04:10:21;37.30;;;1.80;;
11228;SDS011;5671;47.936;8.716;2022-08-21T04:12:48;5.73;;;1.27;;
11228;SDS011;5671;47.936;8.716;2022-08-21T04:15:15;11.67;;;1.30;;
11228;SDS011;5671;47.936;8.716;2022-08-21T04:17:42;17.20;;;1.43;;
11228;SDS011;5671;47.936;8.716;2022-08-21T04:20:09;14.87;;;1.40;;
11228;SDS011;5671;47.936;8.716;2022-08-21T04:22:37;49.03;;;2.17;;
11228;SDS011;5671;47.936;8.716;2022-08-21T04:25:04;1.63;;;1.00;;
11228;SDS011;5671;47.936;8.716;2022-08-21T04:27:34;2.53;;;1.17;;
11228;SDS011;5671;47.936;8.716;2022-08-21T04:30:01;14.60;;;1.43;;
11228;SDS011;5671;47.936;8.716;2022-08-21T04:32:28;8.77;;;1.10;;
11228;SDS011;5671;47.936;8.716;2022-08-21T04:34:59;16.60;;;1.33;;
11228;SDS011;5671;47.936;8.716;2022-08-21T04:37:26;8.20;;;0.90;;
11228;SDS011;5671;47.936;8.716;2022-08-21T04:39:53;11.10;;;1.50;;
11228;SDS011;5671;47.936;8.716;2022-08-21T04:42:22;8.73;;;1.60;;
11228;SDS011;5671;47.936;8.716;2022-08-21T04:44:51;3.43;;;1.13;;
11228;SDS011;5671;47.936;8.716;2022-08-21T04:47:18;4.60;;;1.30;;
11228;SDS011;5671;47.936;8.716;2022-08-21T04:49:45;14.23;;;1.50;;
11228;SDS011;5671;47.936;8.716;2022-08-21T04:52:13;4.30;;;1.20;;
11228;SDS011;5671;47.936;8.716;2022-08-21T04:54:50;13.80;;;1.20;;
11228;SDS011;5671;47.936;8.716;2022-08-21T04:57:51;11.80;;;1.27;;
11228;SDS011;5671;47.936;8.716;2022-08-21T05:00:20;3.23;;;1.00;;
11228;SDS011;5671;47.936;8.716;2022-08-21T05:02:49;29.40;;;1.97;;
11228;SDS011;5671;47.936;8.716;2022-08-21T05:05:21;4.77;;;1.47;;
11228;SDS011;5671;47.936;8.716;2022-08-21T05:07:48;7.47;;;1.27;;
11228;SDS011;5671;47.936;8.716;2022-08-21T05:10:15;21.07;;;1.70;;
11228;SDS011;5671;47.936;8.716;2022-08-21T05:12:43;31.17;;;1.80;;
11228;SDS011;5671;47.936;8.716;2022-08-21T05:15:11;27.07;;;2.43;;
11228;SDS011;5671;47.936;8.716;2022-08-21T05:17:40;6.57;;;1.60;;
11228;SDS011;5671;47.936;8.716;2022-08-21T05:20:08;49.00;;;2.13;;
11228;SDS011;5671;47.936;8.716;2022-08-21T05:22:35;18.10;;;1.70;;
11228;SDS011;5671;47.936;8.716;2022-08-21T05:25:02;46.27;;;2.30;;
11228;SDS011;5671;47.936;8.716;2022-08-21T05:27:30;39.00;;;1.93;;
11228;SDS011;5671;47.936;8.716;2022-08-21T05:29:57;53.23;;;2.60;;
11228;SDS011;5671;47.936;8.716;2022-08-21T05:32:25;30.53;;;1.67;;
11228;SDS011;5671;47.936;8.716;2022-08-21T05:34:54;33.63;;;2.00;;
11228;SDS011;5671;47.936;8.716;2022-08-21T05:37:21;69.90;;;2.83;;
11228;SDS011;5671;47.936;8.716;2022-08-21T05:39:48;31.17;;;2.00;;
11228;SDS011;5671;47.936;8.716;2022-08-21T05:42:15;34.13;;;2.20;;
11228;SDS011;5671;47.936;8.716;2022-08-21T05:44:42;43.20;;;2.00;;
11228;SDS011;5671;47.936;8.716;2022-08-21T05:47:10;44.73;;;2.17;;
11228;SDS011;5671;47.936;8.716;2022-08-21T05:49:38;75.17;;;2.90;;
11228;SDS011;5671;47.936;8.716;2022-08-21T05:52:06;47.00;;;2.13;;
11228;SDS011;5671;47.936;8.716;2022-08-21T05:54:34;47.57;;;1.80;;
11228;SDS011;5671;47.936;8.716;2022-08-21T05:57:03;13.93;;;1.30;;
11228;SDS011;5671;47.936;8.716;2022-08-21T05:59:30;38.70;;;2.00;;
11228;SDS011;5671;47.936;8.716;2022-08-21T06:01:57;1.40;;;1.00;;
11228;SDS011;5671;47.936;8.716;2022-08-21T06:04:24;1.67;;;1.30;;
11228;SDS011;5671;47.936;8.716;2022-08-21T06:06:51;1.27;;;1.17;;
11228;SDS011;5671;47.936;8.716;2022-08-21T06:09:19;1.53;;;1.37;;
11228;SDS011;5671;47.936;8.716;2022-08-21T06:11:46;1.40;;;1.20;;
11228;SDS011;5671;47.936;8.716;2022-08-21T06:14:13;1.90;;;1.10;;
11228;SDS011;5671;47.936;8.716;2022-08-21T06:16:41;1.40;;;1.23;;
11228;SDS011;5671;47.936;8.716;2022-08-21T06:19:08;3.70;;;1.50;;
11228;SDS011;5671;47.936;8.716;2022-08-21T06:21:35;1.30;;;1.20;;
11228;SDS011;5671;47.936;8.716;2022-08-21T06:24:03;1.67;;;1.30;;
11228;SDS011;5671;47.936;8.716;2022-08-21T06:26:32;1.23;;;1.23;;
11228;SDS011;5671;47.936;8.716;2022-08-21T06:28:59;2.87;;;1.80;;
11228;SDS011;5671;47.936;8.716;2022-08-21T06:31:26;1.20;;;1.20;;
11228;SDS011;5671;47.936;8.716;2022-08-21T06:33:54;3.00;;;1.20;;
11228;SDS011;5671;47.936;8.716;2022-08-21T06:36:21;1.97;;;1.60;;
11228;SDS011;5671;47.936;8.716;2022-08-21T06:38:48;1.53;;;1.30;;
11228;SDS011;5671;47.936;8.716;2022-08-21T06:41:15;5.23;;;1.60;;
11228;SDS011;5671;47.936;8.716;2022-08-21T06:43:43;2.13;;;1.53;;
11228;SDS011;5671;47.936;8.716;2022-08-21T06:46:10;2.03;;;1.73;;
11228;SDS011;5671;47.936;8.716;2022-08-21T06:48:37;2.03;;;1.83;;
11228;SDS011;5671;47.936;8.716;2022-08-21T06:51:07;1.90;;;1.80;;
11228;SDS011;5671;47.936;8.716;2022-08-21T06:53:34;3.13;;;2.00;;
11228;SDS011;5671;47.936;8.716;2022-08-21T06:56:01;2.17;;;1.80;;
11228;SDS011;5671;47.936;8.716;2022-08-21T06:58:29;5.40;;;1.53;;
11228;SDS011;5671;47.936;8.716;2022-08-21T07:01:03;1.97;;;1.57;;
11228;SDS011;5671;47.936;8.716;2022-08-21T07:03:31;2.13;;;1.83;;
11228;SDS011;5671;47.936;8.716;2022-08-21T07:06:04;1.80;;;1.70;;
11228;SDS011;5671;47.936;8.716;2022-08-21T07:08:36;1.63;;;1.53;;
11228;SDS011;5671;47.936;8.716;2022-08-21T07:11:04;4.17;;;1.60;;
11228;SDS011;5671;47.936;8.716;2022-08-21T07:13:36;1.57;;;1.47;;
11228;SDS011;5671;47.936;8.716;2022-08-21T07:16:06;2.27;;;2.00;;
11228;SDS011;5671;47.936;8.716;2022-08-21T07:18:33;2.00;;;1.50;;
11228;SDS011;5671;47.936;8.716;2022-08-21T07:21:00;2.33;;;1.90;;
11228;SDS011;5671;47.936;8.716;2022-08-21T07:23:29;1.97;;;1.70;;
11228;SDS011;5671;47.936;8.716;2022-08-21T07:25:58;2.37;;;1.70;;
11228;SDS011;5671;47.936;8.716;2022-08-21T07:28:25;4.40;;;2.53;;
11228;SDS011;5671;47.936;8.716;2022-08-21T07:30:56;2.00;;;1.70;;
11228;SDS011;5671;47.936;8.716;2022-08-21T07:33:26;4.67;;;1.93;;
11228;SDS011;5671;47.936;8.716;2022-08-21T07:35:55;2.70;;;1.80;;
11228;SDS011;5671;47.936;8.716;2022-08-21T07:38:22;2.10;;;1.50;;
11228;SDS011;5671;47.936;8.716;2022-08-21T07:40:50;4.30;;;2.00;;
11228;SDS011;5671;47.936;8.716;2022-08-21T07:43:18;1.70;;;1.60;;
11228;SDS011;5671;47.936;8.716;2022-08-21T07:45:46;4.13;;;1.87;;
11228;SDS011;5671;47.936;8.716;2022-08-21T07:48:14;2.20;;;1.70;;
11228;SDS011;5671;47.936;8.716;2022-08-21T07:50:43;2.87;;;2.00;;
11228;SDS011;5671;47.936;8.716;2022-08-21T07:53:10;2.80;;;1.90;;
11228;SDS011;5671;47.936;8.716;2022-08-21T07:55:37;2.80;;;1.97;;
11228;SDS011;5671;47.936;8.716;2022-08-21T07:58:04;3.50;;;2.20;;
11228;SDS011;5671;47.936;8.716;2022-08-21T08:00:31;3.07;;;2.13;;
11228;SDS011;5671;47.936;8.716;2022-08-21T08:02:59;2.40;;;2.20;;
11228;SDS011;5671;47.936;8.716;2022-08-21T08:05:28;3.83;;;2.07;;
11228;SDS011;5671;47.936;8.716;2022-08-21T08:07:58;21.60;;;4.23;;
11228;SDS011;5671;47.936;8.716;2022-08-21T08:13:29;5.57;;;2.40;;
11228;SDS011;5671;47.936;8.716;2022-08-21T08:15:56;5.17;;;2.60;;
11228;SDS011;5671;47.936;8.716;2022-08-21T08:18:23;4.17;;;2.13;;
11228;SDS011;5671;47.936;8.716;2022-08-21T08:20:50;4.10;;;2.20;;
11228;SDS011;5671;47.936;8.716;2022-08-21T08:23:18;8.13;;;2.77;;
11228;SDS011;5671;47.936;8.716;2022-08-21T08:25:45;5.27;;;2.70;;
11228;SDS011;5671;47.936;8.716;2022-08-21T08:28:13;5.33;;;3.10;;
11228;SDS011;5671;47.936;8.716;2022-08-21T08:30:40;5.27;;;2.67;;
11228;SDS011;5671;47.936;8.716;2022-08-21T08:33:07;5.80;;;3.00;;
11228;SDS011;5671;47.936;8.716;2022-08-21T08:35:34;7.70;;;2.90;;
11228;SDS011;5671;47.936;8.716;2022-08-21T08:38:02;4.33;;;2.73;;
11228;SDS011;5671;47.936;8.716;2022-08-21T08:40:32;3.63;;;2.87;;
11228;SDS011;5671;47.936;8.716;2022-08-21T08:43:05;4.23;;;2.53;;
11228;SDS011;5671;47.936;8.716;2022-08-21T08:45:34;6.90;;;2.57;;
11228;SDS011;5671;47.936;8.716;2022-08-21T08:48:05;5.83;;;2.50;;
11228;SDS011;5671;47.936;8.716;2022-08-21T08:50:39;7.03;;;3.00;;
11228;SDS011;5671;47.936;8.716;2022-08-21T08:53:11;6.43;;;2.80;;
11228;SDS011;5671;47.936;8.716;2022-08-21T08:55:46;5.63;;;2.93;;
11228;SDS011;5671;47.936;8.716;2022-08-21T08:58:19;3.97;;;2.77;;
11228;SDS011;5671;47.936;8.716;2022-08-21T09:00:50;5.30;;;2.83;;
11228;SDS011;5671;47.936;8.716;2022-08-21T09:03:18;3.53;;;2.30;;
11228;SDS011;5671;47.936;8.716;2022-08-21T09:05:48;4.17;;;2.40;;
11228;SDS011;5671;47.936;8.716;2022-08-21T09:08:31;2.97;;;2.13;;
11228;SDS011;5671;47.936;8.716;2022-08-21T09:11:12;3.63;;;1.77;;
11228;SDS011;5671;47.936;8.716;2022-08-21T09:13:47;2.93;;;2.10;;
11228;SDS011;5671;47.936;8.716;2022-08-21T09:16:21;3.07;;;1.83;;
11228;SDS011;5671;47.936;8.716;2022-08-21T09:18:58;3.83;;;2.00;;
11228;SDS011;5671;47.936;8.716;2022-08-21T09:21:38;3.07;;;1.80;;
11228;SDS011;5671;47.936;8.716;2022-08-21T09:24:17;6.50;;;2.00;;
11228;SDS011;5671;47.936;8.716;2022-08-21T09:27:00;3.47;;;2.03;;
11228;SDS011;5671;47.936;8.716;2022-08-21T09:29:31;4.53;;;2.03;;
11228;SDS011;5671;47.936;8.716;2022-08-21T09:32:02;5.03;;;2.27;;
11228;SDS011;5671;47.936;8.716;2022-08-21T09:34:35;3.20;;;1.93;;
11228;SDS011;5671;47.936;8.716;2022-08-21T09:37:02;3.47;;;1.83;;
11228;SDS011;5671;47.936;8.716;2022-08-21T09:39:30;6.90;;;2.50;;
11228;SDS011;5671;47.936;8.716;2022-08-21T09:42:07;5.43;;;2.13;;
11228;SDS011;5671;47.936;8.716;2022-08-21T09:44:40;3.97;;;2.00;;
11228;SDS011;5671;47.936;8.716;2022-08-21T09:47:09;3.33;;;1.60;;
11228;SDS011;5671;47.936;8.716;2022-08-21T09:49:38;3.50;;;2.13;;
11228;SDS011;5671;47.936;8.716;2022-08-21T09:52:15;3.73;;;1.63;;
11228;SDS011;5671;47.936;8.716;2022-08-21T09:54:48;2.93;;;1.90;;
11228;SDS011;5671;47.936;8.716;2022-08-21T09:57:19;3.83;;;2.03;;
11228;SDS011;5671;47.936;8.716;2022-08-21T10:00:08;3.20;;;1.80;;
11228;SDS011;5671;47.936;8.716;2022-08-21T10:02:41;3.43;;;1.93;;
11228;SDS011;5671;47.936;8.716;2022-08-21T10:05:23;2.77;;;1.67;;
11228;SDS011;5671;47.936;8.716;2022-08-21T10:07:52;2.27;;;1.60;;
11228;SDS011;5671;47.936;8.716;2022-08-21T10:10:20;2.07;;;1.60;;
11228;SDS011;5671;47.936;8.716;2022-08-21T10:13:07;1.77;;;1.67;;
11228;SDS011;5671;47.936;8.716;2022-08-21T10:15:41;2.53;;;1.80;;
11228;SDS011;5671;47.936;8.716;2022-08-21T10:18:19;5.10;;;1.70;;
11228;SDS011;5671;47.936;8.716;2022-08-21T10:20:52;3.10;;;1.80;;
11228;SDS011;5671;47.936;8.716;2022-08-21T10:23:46;3.57;;;1.43;;
11228;SDS011;5671;47.936;8.716;2022-08-21T10:26:25;2.60;;;1.77;;
11228;SDS011;5671;47.936;8.716;2022-08-21T10:29:05;2.70;;;1.80;;
11228;SDS011;5671;47.936;8.716;2022-08-21T10:31:54;2.47;;;1.50;;
11228;SDS011;5671;47.936;8.716;2022-08-21T10:34:33;3.63;;;2.00;;
11228;SDS011;5671;47.936;8.716;2022-08-21T10:37:16;5.33;;;1.90;;
11228;SDS011;5671;47.936;8.716;2022-08-21T10:40:02;2.47;;;1.73;;
11228;SDS011;5671;47.936;8.716;2022-08-21T10:56:34;1.80;;;1.20;;
11228;SDS011;5671;47.936;8.716;2022-08-21T11:43:22;1.77;;;1.47;;
11228;SDS011;5671;47.936;8.716;2022-08-21T11:46:48;2.23;;;1.30;;
11228;SDS011;5671;47.936;8.716;2022-08-21T12:03:57;6.03;;;1.43;;
11228;SDS011;5671;47.936;8.716;2022-08-21T12:06:33;1.53;;;1.23;;
11228;SDS011;5671;47.936;8.716;2022-08-21T12:13:23;4.53;;;1.57;;
11228;SDS011;5671;47.936;8.716;2022-08-21T12:58:54;1.63;;;1.00;;
11228;SDS011;5671;47.936;8.716;2022-08-21T13:04:15;2.00;;;1.43;;
11228;SDS011;5671;47.936;8.716;2022-08-21T13:21:02;1.73;;;1.33;;
11228;SDS011;5671;47.936;8.716;2022-08-21T13:49:47;1.33;;;1.23;;
11228;SDS011;5671;47.936;8.716;2022-08-21T13:56:20;1.50;;;1.40;;
11228;SDS011;5671;47.936;8.716;2022-08-21T13:59:03;1.47;;;1.20;;
11228;SDS011;5671;47.936;8.716;2022-08-21T14:01:49;2.87;;;1.33;;
11228;SDS011;5671;47.936;8.716;2022-08-21T14:04:39;4.97;;;1.20;;
11228;SDS011;5671;47.936;8.716;2022-08-21T14:07:18;1.43;;;1.13;;
11228;SDS011;5671;47.936;8.716;2022-08-21T14:09:53;2.20;;;1.17;;
11228;SDS011;5671;47.936;8.716;2022-08-21T14:15:41;1.37;;;1.00;;
11228;SDS011;5671;47.936;8.716;2022-08-21T14:18:43;1.30;;;1.20;;
11228;SDS011;5671;47.936;8.716;2022-08-21T14:30:55;1.30;;;1.07;;
11228;SDS011;5671;47.936;8.716;2022-08-21T14:34:08;1.20;;;1.03;;
11228;SDS011;5671;47.936;8.716;2022-08-21T14:36:40;1.77;;;1.03;;
11228;SDS011;5671;47.936;8.716;2022-08-21T14:39:18;1.80;;;1.03;;
11228;SDS011;5671;47.936;8.716;2022-08-21T14:45:17;1.80;;;1.17;;
11228;SDS011;5671;47.936;8.716;2022-08-21T14:47:51;1.83;;;1.23;;
11228;SDS011;5671;47.936;8.716;2022-08-21T14:50:19;1.60;;;1.40;;
11228;SDS011;5671;47.936;8.716;2022-08-21T14:52:51;1.40;;;1.10;;
11228;SDS011;5671;47.936;8.716;2022-08-21T14:55:19;2.93;;;1.40;;
11228;SDS011;5671;47.936;8.716;2022-08-21T14:57:47;1.40;;;1.17;;
11228;SDS011;5671;47.936;8.716;2022-08-21T15:00:18;2.57;;;1.10;;
11228;SDS011;5671;47.936;8.716;2022-08-21T15:08:51;3.40;;;1.50;;
11228;SDS011;5671;47.936;8.716;2022-08-21T15:11:19;1.77;;;1.30;;
11228;SDS011;5671;47.936;8.716;2022-08-21T15:13:47;1.57;;;1.40;;
11228;SDS011;5671;47.936;8.716;2022-08-21T15:16:21;2.13;;;1.20;;
11228;SDS011;5671;47.936;8.716;2022-08-21T15:18:51;1.70;;;1.23;;
11228;SDS011;5671;47.936;8.716;2022-08-21T15:21:21;1.33;;;1.23;;
11228;SDS011;5671;47.936;8.716;2022-08-21T15:23:48;1.00;;;1.00;;
11228;SDS011;5671;47.936;8.716;2022-08-21T15:26:16;1.30;;;1.20;;
11228;SDS011;5671;47.936;8.716;2022-08-21T15:28:43;1.63;;;1.10;;
11228;SDS011;5671;47.936;8.716;2022-08-21T15:31:10;2.03;;;1.40;;
11228;SDS011;5671;47.936;8.716;2022-08-21T15:33:37;1.50;;;1.40;;
11228;SDS011;5671;47.936;8.716;2022-08-21T15:36:05;3.13;;;1.00;;
11228;SDS011;5671;47.936;8.716;2022-08-21T15:38:34;1.77;;;1.50;;
11228;SDS011;5671;47.936;8.716;2022-08-21T15:41:01;2.03;;;1.50;;
11228;SDS011;5671;47.936;8.716;2022-08-21T15:43:37;5.07;;;2.07;;
11228;SDS011;5671;47.936;8.716;2022-08-21T15:46:12;5.10;;;1.80;;
11228;SDS011;5671;47.936;8.716;2022-08-21T15:48:41;1.63;;;1.20;;
11228;SDS011;5671;47.936;8.716;2022-08-21T15:51:20;3.90;;;1.33;;
11228;SDS011;5671;47.936;8.716;2022-08-21T15:53:50;1.87;;;1.70;;
11228;SDS011;5671;47.936;8.716;2022-08-21T15:56:17;2.43;;;1.53;;
11228;SDS011;5671;47.936;8.716;2022-08-21T15:58:57;2.43;;;1.57;;
11228;SDS011;5671;47.936;8.716;2022-08-21T16:01:32;1.80;;;1.30;;
11228;SDS011;5671;47.936;8.716;2022-08-21T16:04:03;1.70;;;1.10;;
11228;SDS011;5671;47.936;8.716;2022-08-21T16:06:33;2.23;;;1.50;;
11228;SDS011;5671;47.936;8.716;2022-08-21T16:09:01;1.43;;;1.33;;
11228;SDS011;5671;47.936;8.716;2022-08-21T16:11:28;1.63;;;1.40;;
11228;SDS011;5671;47.936;8.716;2022-08-21T16:13:58;1.83;;;1.20;;
11228;SDS011;5671;47.936;8.716;2022-08-21T16:16:28;3.50;;;1.30;;
11228;SDS011;5671;47.936;8.716;2022-08-21T16:19:02;2.00;;;1.50;;
11228;SDS011;5671;47.936;8.716;2022-08-21T16:21:33;1.33;;;1.23;;
11228;SDS011;5671;47.936;8.716;2022-08-21T16:24:03;2.17;;;1.30;;
11228;SDS011;5671;47.936;8.716;2022-08-21T16:26:30;1.57;;;1.20;;
11228;SDS011;5671;47.936;8.716;2022-08-21T16:29:05;1.37;;;1.27;;
11228;SDS011;5671;47.936;8.716;2022-08-21T16:31:36;1.90;;;1.47;;
11228;SDS011;5671;47.936;8.716;2022-08-21T16:34:08;1.20;;;1.10;;
11228;SDS011;5671;47.936;8.716;2022-08-21T16:36:41;1.40;;;1.30;;
11228;SDS011;5671;47.936;8.716;2022-08-21T16:39:11;2.27;;;1.70;;
11228;SDS011;5671;47.936;8.716;2022-08-21T16:41:49;3.90;;;1.67;;
11228;SDS011;5671;47.936;8.716;2022-08-21T16:44:24;4.07;;;1.60;;
11228;SDS011;5671;47.936;8.716;2022-08-21T16:47:03;1.60;;;1.30;;
11228;SDS011;5671;47.936;8.716;2022-08-21T16:49:48;1.83;;;1.13;;
11228;SDS011;5671;47.936;8.716;2022-08-21T16:52:18;2.20;;;1.60;;
11228;SDS011;5671;47.936;8.716;2022-08-21T16:54:49;2.13;;;1.50;;
11228;SDS011;5671;47.936;8.716;2022-08-21T16:57:18;1.73;;;1.37;;
11228;SDS011;5671;47.936;8.716;2022-08-21T16:59:47;4.67;;;1.57;;
11228;SDS011;5671;47.936;8.716;2022-08-21T17:02:17;2.80;;;1.47;;
11228;SDS011;5671;47.936;8.716;2022-08-21T17:04:51;2.00;;;1.43;;
11228;SDS011;5671;47.936;8.716;2022-08-21T17:07:32;1.63;;;1.50;;
11228;SDS011;5671;47.936;8.716;2022-08-21T17:09:59;2.13;;;1.40;;
11228;SDS011;5671;47.936;8.716;2022-08-21T17:12:28;2.60;;;1.77;;
11228;SDS011;5671;47.936;8.716;2022-08-21T17:15:03;3.23;;;1.73;;
11228;SDS011;5671;47.936;8.716;2022-08-21T17:17:35;2.97;;;1.60;;
11228;SDS011;5671;47.936;8.716;2022-08-21T17:20:03;2.07;;;1.50;;
11228;SDS011;5671;47.936;8.716;2022-08-21T17:22:31;1.97;;;1.57;;
11228;SDS011;5671;47.936;8.716;2022-08-21T17:24:58;1.40;;;1.30;;
11228;SDS011;5671;47.936;8.716;2022-08-21T17:27:25;1.40;;;1.30;;
11228;SDS011;5671;47.936;8.716;2022-08-21T17:29:53;1.97;;;1.53;;
11228;SDS011;5671;47.936;8.716;2022-08-21T17:32:22;3.50;;;1.90;;
11228;SDS011;5671;47.936;8.716;2022-08-21T17:34:50;2.33;;;2.03;;
11228;SDS011;5671;47.936;8.716;2022-08-21T17:37:17;2.87;;;2.10;;
11228;SDS011;5671;47.936;8.716;2022-08-21T17:40:03;2.33;;;1.90;;
11228;SDS011;5671;47.936;8.716;2022-08-21T17:42:32;2.03;;;1.93;;
11228;SDS011;5671;47.936;8.716;2022-08-21T17:45:00;3.43;;;1.77;;
11228;SDS011;5671;47.936;8.716;2022-08-21T17:47:29;3.87;;;1.93;;
11228;SDS011;5671;47.936;8.716;2022-08-21T17:49:56;3.00;;;2.00;;
11228;SDS011;5671;47.936;8.716;2022-08-21T17:52:23;2.80;;;1.90;;
11228;SDS011;5671;47.936;8.716;2022-08-21T17:54:50;3.30;;;1.63;;
11228;SDS011;5671;47.936;8.716;2022-08-21T17:57:18;2.77;;;2.00;;
11228;SDS011;5671;47.936;8.716;2022-08-21T17:59:47;4.50;;;1.90;;
11228;SDS011;5671;47.936;8.716;2022-08-21T18:02:14;3.13;;;2.23;;
11228;SDS011;5671;47.936;8.716;2022-08-21T18:04:43;3.83;;;1.73;;
11228;SDS011;5671;47.936;8.716;2022-08-21T18:07:10;7.63;;;1.80;;
11228;SDS011;5671;47.936;8.716;2022-08-21T18:09:39;5.67;;;1.80;;
11228;SDS011;5671;47.936;8.716;2022-08-21T18:12:07;5.27;;;2.07;;
11228;SDS011;5671;47.936;8.716;2022-08-21T18:14:35;2.07;;;1.80;;
11228;SDS011;5671;47.936;8.716;2022-08-21T18:17:04;1.90;;;1.80;;
11228;SDS011;5671;47.936;8.716;2022-08-21T18:19:36;4.07;;;2.00;;
11228;SDS011;5671;47.936;8.716;2022-08-21T18:22:12;4.83;;;2.07;;
11228;SDS011;5671;47.936;8.716;2022-08-21T18:24:39;5.03;;;2.37;;
11228;SDS011;5671;47.936;8.716;2022-08-21T18:27:08;3.43;;;2.40;;
11228;SDS011;5671;47.936;8.716;2022-08-21T18:29:39;3.10;;;2.57;;